Time;durP1;ratioP1;P1;durP2;ratioP2;P2;SDS_P1;SDS_P2;PMS_P1;PMS_P2;Temp;Humidity;BMP_temperature;BMP_pressure;BME280_temperature;BME280_humidity;BME280_pressure;Samples;Min_cycle;Max_cycle;Signal;HPM_P1;HPM_P2
2022/10/07 00:01:46;;;;;;;10.95;2.33;;;16.30;69.20;;;;;;4794299;29;20116;-78
2022/10/07 00:04:12;;;;;;;8.27;1.85;;;16.30;69.20;;;;;;4790685;29;20142;-78
2022/10/07 00:06:38;;;;;;;8.40;1.75;;;16.30;69.20;;;;;;4775143;30;20535;-77
2022/10/07 00:09:04;;;;;;;8.82;1.70;;;16.30;69.20;;;;;;4775680;30;20398;-76
2022/10/07 00:11:30;;;;;;;8.45;2.33;;;16.30;69.40;;;;;;4794378;29;20082;-78
2022/10/07 00:14:02;;;;;;;5.60;1.35;;;16.30;69.30;;;;;;4792948;29;20142;-78
2022/10/07 00:16:30;;;;;;;11.55;2.22;;;16.30;69.40;;;;;;4808858;29;20051;-78
2022/10/07 00:18:59;;;;;;;7.63;1.67;;;16.30;69.40;;;;;;4808491;29;20457;-77
2022/10/07 00:21:27;;;;;;;7.57;1.88;;;16.30;69.50;;;;;;4805697;29;20135;-78
2022/10/07 00:23:53;;;;;;;7.13;1.90;;;16.30;69.50;;;;;;4791075;29;20063;-77
2022/10/07 00:26:22;;;;;;;7.88;1.67;;;16.30;69.50;;;;;;4791120;30;20058;-77
2022/10/07 00:28:49;;;;;;;6.30;1.60;;;16.30;69.50;;;;;;4790672;30;20116;-78
2022/10/07 00:31:20;;;;;;;7.80;1.95;;;16.30;69.50;;;;;;4775879;29;20051;-77
2022/10/07 00:33:47;;;;;;;8.05;2.28;;;16.30;69.50;;;;;;4808476;29;20133;-77
2022/10/07 00:36:19;;;;;;;7.35;1.83;;;16.30;69.50;;;;;;4808534;29;20054;-78
2022/10/07 00:38:50;;;;;;;9.73;1.95;;;16.30;69.50;;;;;;4808173;29;20070;-77
2022/10/07 00:41:20;;;;;;;4.78;1.13;;;16.30;69.50;;;;;;4820794;29;20050;-77
2022/10/07 00:43:46;;;;;;;7.95;1.70;;;16.30;69.40;;;;;;4790808;30;20429;-78
2022/10/07 00:46:24;;;;;;;8.95;1.35;;;16.30;69.40;;;;;;4790492;29;20112;-77
2022/10/07 00:48:50;;;;;;;8.30;1.55;;;16.30;69.40;;;;;;4819511;29;20371;-77
2022/10/07 00:51:16;;;;;;;8.55;1.77;;;16.30;69.40;;;;;;4790724;29;20055;-77
2022/10/07 00:53:46;;;;;;;7.70;1.95;;;16.30;69.50;;;;;;4789943;29;20083;-77
2022/10/07 00:56:13;;;;;;;9.15;1.73;;;16.30;69.60;;;;;;4790002;29;20144;-79
2022/10/07 00:58:42;;;;;;;10.57;2.13;;;16.30;69.60;;;;;;4790036;30;20059;-77
2022/10/07 01:01:08;;;;;;;8.82;1.63;;;16.30;69.70;;;;;;4798427;29;20066;-78
2022/10/07 01:03:35;;;;;;;8.45;1.70;;;16.30;69.70;;;;;;4791609;29;20055;-76
2022/10/07 01:06:04;;;;;;;7.43;1.60;;;16.20;69.70;;;;;;4790419;29;20352;-77
2022/10/07 01:08:31;;;;;;;7.93;1.92;;;16.20;69.70;;;;;;4789839;30;20075;-78
2022/10/07 01:11:26;;;;;;;7.65;1.63;;;16.20;69.70;;;;;;4796467;29;20595;-77
2022/10/07 01:14:28;;;;;;;6.38;1.60;;;16.20;69.60;;;;;;4799450;29;20444;-77
2022/10/07 01:17:21;;;;;;;7.93;1.60;;;16.20;69.70;;;;;;4822556;29;20051;-77
2022/10/07 01:20:02;;;;;;;9.68;2.45;;;16.20;69.70;;;;;;4822249;29;20058;-79
2022/10/07 01:23:12;;;;;;;5.88;1.38;;;16.20;69.60;;;;;;4790128;30;20332;-78
2022/10/07 01:26:13;;;;;;;9.82;1.77;;;16.20;69.60;;;;;;4794124;29;20227;-79
2022/10/07 01:28:48;;;;;;;9.20;1.60;;;16.20;69.70;;;;;;4774780;30;20063;-78
2022/10/07 01:31:20;;;;;;;10.70;2.22;;;16.20;69.80;;;;;;4777917;30;20087;-77
2022/10/07 01:33:48;;;;;;;10.52;1.52;;;16.20;69.70;;;;;;4794323;29;20067;-77
2022/10/07 01:36:19;;;;;;;8.85;1.73;;;16.20;69.70;;;;;;4807792;29;20055;-77
2022/10/07 01:38:51;;;;;;;7.07;1.60;;;16.20;69.70;;;;;;4793506;30;20067;-77
2022/10/07 01:41:20;;;;;;;6.03;1.48;;;16.20;69.70;;;;;;4801865;29;20055;-77
2022/10/07 01:43:47;;;;;;;7.47;2.03;;;16.20;69.80;;;;;;4810976;29;20058;-79
2022/10/07 01:46:18;;;;;;;6.13;1.30;;;16.20;69.80;;;;;;4811117;29;20050;-77
2022/10/07 01:48:47;;;;;;;6.82;1.98;;;16.20;69.80;;;;;;4811528;29;20054;-77
2022/10/07 01:51:16;;;;;;;7.80;1.70;;;16.20;69.80;;;;;;4802667;29;20058;-77
2022/10/07 01:54:04;;;;;;;7.78;1.92;;;16.20;69.80;;;;;;4793870;30;20117;-76
2022/10/07 01:56:36;;;;;;;9.23;2.03;;;16.20;69.80;;;;;;4807681;29;20208;-77
2022/10/07 01:59:20;;;;;;;7.15;1.63;;;16.20;69.80;;;;;;4792547;30;20062;-78
2022/10/07 02:02:29;;;;;;;5.13;1.75;;;16.20;69.90;;;;;;4802115;29;20051;-77
2022/10/07 02:05:18;;;;;;;6.43;1.45;;;16.20;69.80;;;;;;4809823;29;20074;-78
2022/10/07 02:08:09;;;;;;;5.90;1.17;;;16.20;69.80;;;;;;4811043;29;20103;-77
2022/10/07 02:11:19;;;;;;;6.32;1.40;;;16.10;69.80;;;;;;4811219;29;20151;-78
2022/10/07 02:14:05;;;;;;;8.77;1.88;;;16.20;69.80;;;;;;4792431;29;20073;-77
2022/10/07 02:16:48;;;;;;;10.95;1.80;;;16.20;69.80;;;;;;4792944;30;20055;-77
2022/10/07 02:19:31;;;;;;;10.60;1.70;;;16.20;69.90;;;;;;4792438;30;20124;-78
2022/10/07 02:22:00;;;;;;;6.03;1.63;;;16.10;69.90;;;;;;4780000;29;20122;-77
2022/10/07 02:24:29;;;;;;;9.23;1.52;;;16.10;69.90;;;;;;4810882;29;20069;-77
2022/10/07 02:26:57;;;;;;;6.93;1.38;;;16.10;70.00;;;;;;4810734;29;20371;-77
2022/10/07 02:29:26;;;;;;;10.90;1.80;;;16.10;70.00;;;;;;4810615;29;20122;-77
2022/10/07 02:31:53;;;;;;;6.43;1.50;;;16.10;70.10;;;;;;4822208;29;20058;-77
2022/10/07 02:34:21;;;;;;;9.52;1.77;;;16.10;70.10;;;;;;4777188;30;20115;-78
2022/10/07 02:36:52;;;;;;;9.70;2.00;;;16.10;70.10;;;;;;4776948;30;20051;-77
2022/10/07 02:39:18;;;;;;;9.60;1.95;;;16.10;70.10;;;;;;4775988;30;20072;-77
2022/10/07 02:41:54;;;;;;;11.82;2.28;;;16.10;70.10;;;;;;4792446;29;20082;-78
2022/10/07 02:44:38;;;;;;;10.50;2.20;;;16.10;70.20;;;;;;4824217;29;20070;-76
2022/10/07 02:47:16;;;;;;;8.02;2.28;;;16.10;70.30;;;;;;4794792;29;20073;-77
2022/10/07 02:49:45;;;;;;;7.45;1.85;;;16.10;70.30;;;;;;4793921;29;20047;-77
2022/10/07 02:52:14;;;;;;;8.20;1.67;;;16.10;70.30;;;;;;4805071;29;20055;-79
2022/10/07 02:54:45;;;;;;;6.45;1.80;;;16.10;70.30;;;;;;4793295;29;20126;-77
2022/10/07 02:57:15;;;;;;;6.57;1.77;;;16.10;70.30;;;;;;4808009;29;20050;-77
2022/10/07 02:59:41;;;;;;;7.05;1.73;;;16.10;70.50;;;;;;4810598;29;20475;-78
2022/10/07 03:02:14;;;;;;;8.30;1.95;;;16.10;70.50;;;;;;4805766;29;20100;-77
2022/10/07 03:04:41;;;;;;;9.85;3.15;;;16.10;70.50;;;;;;4791999;29;20116;-78
2022/10/07 03:07:07;;;;;;;8.25;1.85;;;16.10;70.60;;;;;;4791937;30;20059;-77
2022/10/07 03:09:34;;;;;;;5.43;1.70;;;16.10;70.60;;;;;;4792123;30;20419;-78
2022/10/07 03:11:59;;;;;;;8.60;1.90;;;16.10;70.70;;;;;;4794229;29;20082;-77
2022/10/07 03:14:25;;;;;;;6.90;1.65;;;16.10;70.70;;;;;;4810503;29;20097;-77
2022/10/07 03:16:51;;;;;;;9.75;2.03;;;16.10;70.80;;;;;;4810144;29;20443;-78
2022/10/07 03:19:17;;;;;;;7.93;2.17;;;16.10;70.80;;;;;;4809505;29;20051;-79
2022/10/07 03:21:43;;;;;;;10.45;2.50;;;16.10;71.00;;;;;;4808674;29;20059;-78
2022/10/07 03:24:10;;;;;;;7.07;1.90;;;16.10;71.00;;;;;;4793668;29;20128;-77
2022/10/07 03:26:36;;;;;;;7.22;1.80;;;16.10;70.90;;;;;;4820681;29;20095;-77
2022/10/07 03:29:02;;;;;;;11.32;2.20;;;16.10;71.00;;;;;;4791528;29;20055;-78
2022/10/07 03:31:28;;;;;;;8.30;2.15;;;16.10;71.00;;;;;;4775750;30;20519;-77
2022/10/07 03:33:55;;;;;;;9.23;2.10;;;16.10;71.00;;;;;;4807457;29;20147;-78
2022/10/07 03:36:22;;;;;;;9.95;1.67;;;16.10;71.10;;;;;;4824270;29;20520;-77
2022/10/07 03:38:48;;;;;;;7.22;2.28;;;16.10;71.10;;;;;;4809108;29;20137;-77
2022/10/07 03:41:15;;;;;;;8.15;2.20;;;16.10;71.10;;;;;;4793700;29;20051;-77
2022/10/07 03:43:40;;;;;;;9.45;2.38;;;16.10;71.20;;;;;;4794141;29;20056;-77
2022/10/07 03:46:06;;;;;;;9.00;2.28;;;16.10;71.30;;;;;;4775433;30;20058;-78
2022/10/07 03:48:32;;;;;;;8.02;2.45;;;16.10;71.20;;;;;;4775167;30;20058;-77
2022/10/07 03:50:58;;;;;;;6.63;2.30;;;16.10;71.20;;;;;;4805481;29;20051;-77
2022/10/07 03:53:25;;;;;;;6.60;1.95;;;16.10;71.30;;;;;;4807281;29;20482;-78
2022/10/07 03:55:52;;;;;;;9.07;2.65;;;16.10;71.40;;;;;;4793244;29;20055;-77
2022/10/07 03:58:17;;;;;;;10.60;3.10;;;16.10;71.40;;;;;;4809053;29;20058;-77
2022/10/07 04:00:43;;;;;;;10.60;2.00;;;16.10;71.40;;;;;;4793010;29;20351;-78
2022/10/07 04:03:09;;;;;;;8.30;2.05;;;16.00;71.50;;;;;;4807848;29;20055;-77
2022/10/07 04:05:36;;;;;;;8.88;2.67;;;16.10;71.50;;;;;;4809062;29;20062;-77
2022/10/07 04:08:03;;;;;;;11.00;2.45;;;16.00;71.50;;;;;;4809118;29;20421;-77
2022/10/07 04:10:29;;;;;;;6.90;1.73;;;16.10;71.60;;;;;;4792913;29;20514;-77
2022/10/07 04:12:55;;;;;;;10.27;2.28;;;16.10;71.60;;;;;;4793940;29;20093;-77
2022/10/07 04:15:21;;;;;;;6.85;1.95;;;16.10;71.60;;;;;;4774976;30;20090;-77
2022/10/07 04:17:48;;;;;;;10.02;2.47;;;16.10;71.60;;;;;;4790433;30;20135;-78
2022/10/07 04:20:15;;;;;;;8.45;2.20;;;16.10;71.70;;;;;;4790451;30;20063;-77
2022/10/07 04:22:41;;;;;;;8.60;2.88;;;16.10;71.70;;;;;;4795676;29;20093;-78
2022/10/07 04:27:56;;;;;;;10.68;2.72;;;16.10;71.80;;;;;;4796608;29;20130;-81
2022/10/07 04:30:25;;;;;;;14.40;2.58;;;16.10;71.80;;;;;;4774678;30;20047;-78
2022/10/07 04:32:51;;;;;;;12.52;2.63;;;16.10;71.80;;;;;;4793494;29;20051;-73
2022/10/07 04:35:21;;;;;;;9.57;2.80;;;16.10;71.80;;;;;;4790335;30;20035;-74
2022/10/07 04:37:48;;;;;;;9.98;1.77;;;16.10;71.90;;;;;;4759701;30;20136;-76
2022/10/07 04:40:14;;;;;;;11.27;2.20;;;16.10;71.90;;;;;;4774178;30;20515;-78
2022/10/07 04:45:24;;;;;;;7.20;2.30;;;16.10;72.00;;;;;;4792157;29;20398;-75
2022/10/07 04:47:50;;;;;;;9.05;2.92;;;16.10;72.10;;;;;;4808516;29;20057;-76
2022/10/07 04:50:16;;;;;;;13.15;2.85;;;16.20;72.10;;;;;;4808425;29;20092;-75
2022/10/07 04:52:42;;;;;;;8.80;2.13;;;16.20;72.10;;;;;;4808364;29;20348;-75
2022/10/07 04:55:13;;;;;;;9.95;2.13;;;16.20;72.10;;;;;;4806554;29;20051;-75
2022/10/07 04:57:39;;;;;;;11.10;2.35;;;16.10;72.10;;;;;;4808439;29;20059;-75
2022/10/07 05:00:07;;;;;;;12.57;2.30;;;16.10;72.10;;;;;;4807977;29;20070;-75
2022/10/07 05:02:33;;;;;;;11.88;3.38;;;16.10;72.10;;;;;;4808528;29;20451;-75
2022/10/07 05:04:59;;;;;;;9.70;2.53;;;16.10;72.20;;;;;;4779941;29;20066;-74
2022/10/07 05:07:25;;;;;;;12.23;2.42;;;16.00;72.90;;;;;;4790625;30;20070;-77
2022/10/07 05:09:51;;;;;;;11.32;2.15;;;16.00;73.50;;;;;;4790679;29;20051;-77
2022/10/07 05:12:17;;;;;;;11.90;2.25;;;16.00;74.00;;;;;;4790218;30;20055;-77
2022/10/07 05:14:43;;;;;;;14.18;2.92;;;15.90;74.20;;;;;;4790029;29;20051;-76
2022/10/07 05:17:09;;;;;;;15.38;2.58;;;15.90;74.50;;;;;;4790048;29;20059;-77
2022/10/07 05:19:35;;;;;;;12.50;2.40;;;15.90;74.70;;;;;;4789971;30;20124;-77
2022/10/07 05:22:01;;;;;;;10.70;2.03;;;15.80;74.90;;;;;;4804071;29;20062;-77
2022/10/07 05:24:28;;;;;;;11.85;2.38;;;15.80;75.20;;;;;;4826223;29;20094;-76
2022/10/07 05:26:54;;;;;;;12.27;2.58;;;15.80;75.30;;;;;;4818281;29;20085;-77
2022/10/07 05:29:20;;;;;;;17.67;2.60;;;15.90;75.20;;;;;;4807746;29;20115;-75
2022/10/07 05:31:47;;;;;;;14.02;3.03;;;16.00;74.80;;;;;;4807943;29;20066;-74
2022/10/07 05:34:14;;;;;;;12.57;3.15;;;16.00;74.10;;;;;;4807948;29;20471;-76
2022/10/07 05:36:41;;;;;;;8.38;3.08;;;16.00;73.50;;;;;;4787176;30;20098;-75
2022/10/07 05:39:08;;;;;;;16.02;3.67;;;15.90;73.40;;;;;;4773322;30;20071;-71
2022/10/07 05:41:34;;;;;;;23.05;8.00;;;15.90;73.50;;;;;;4798416;29;20463;-76
2022/10/07 05:44:00;;;;;;;25.88;8.27;;;15.80;74.10;;;;;;4795115;29;20055;-76
2022/10/07 05:46:26;;;;;;;23.15;7.43;;;15.80;74.40;;;;;;4801414;29;20079;-76
2022/10/07 05:48:53;;;;;;;18.58;7.13;;;15.80;74.70;;;;;;4794000;29;20104;-74
2022/10/07 05:51:23;;;;;;;13.70;4.57;;;15.80;74.80;;;;;;4800146;29;20066;-81
2022/10/07 05:53:53;;;;;;;10.30;4.15;;;15.80;74.90;;;;;;4792670;29;20063;-80
2022/10/07 05:56:22;;;;;;;11.20;3.40;;;15.70;75.30;;;;;;4775044;29;20065;-80
2022/10/07 05:58:49;;;;;;;10.95;2.55;;;15.70;75.20;;;;;;4803258;29;20059;-80
2022/10/07 06:01:17;;;;;;;11.65;2.70;;;15.60;75.00;;;;;;4792099;29;20121;-81
2022/10/07 06:03:51;;;;;;;14.38;3.22;;;15.60;74.90;;;;;;4759093;30;20059;-80
2022/10/07 06:06:17;;;;;;;11.80;2.50;;;15.60;74.80;;;;;;4796648;29;20362;-80
2022/10/07 06:08:44;;;;;;;13.85;2.70;;;15.60;74.70;;;;;;4804263;29;20153;-80
2022/10/07 06:54:32;;;;;;;10.85;2.60;;;16.10;73.40;;;;;;5669332;24;20050;-76
2022/10/07 06:56:58;;;;;;;9.77;2.60;;;16.10;73.30;;;;;;4828152;29;20062;-77
2022/10/07 06:59:24;;;;;;;7.82;2.63;;;16.10;73.40;;;;;;4826093;29;20122;-75
2022/10/07 07:01:50;;;;;;;12.90;3.30;;;16.10;73.40;;;;;;4827949;29;20062;-77
2022/10/07 07:04:15;;;;;;;11.32;2.80;;;16.10;73.50;;;;;;4827510;29;20458;-77
2022/10/07 07:06:41;;;;;;;10.85;2.25;;;16.10;73.50;;;;;;4828109;29;20061;-74
2022/10/07 07:09:07;;;;;;;11.88;2.70;;;16.10;73.50;;;;;;4828232;29;20050;-73
2022/10/07 07:11:35;;;;;;;12.52;3.00;;;16.10;73.50;;;;;;4812035;29;20069;-73
2022/10/07 07:14:08;;;;;;;10.57;2.97;;;16.10;73.50;;;;;;4827392;29;20050;-78
2022/10/07 07:16:34;;;;;;;11.02;2.67;;;16.10;73.50;;;;;;4827395;29;20070;-76
2022/10/07 07:19:07;;;;;;;10.63;2.72;;;16.20;73.60;;;;;;4827748;29;20103;-79
2022/10/07 07:21:34;;;;;;;7.47;2.58;;;16.20;73.60;;;;;;4827460;29;20057;-77
2022/10/07 07:24:01;;;;;;;9.77;3.22;;;16.20;73.60;;;;;;4827557;29;20138;-76
2022/10/07 07:26:27;;;;;;;11.05;2.45;;;16.20;73.60;;;;;;4826881;29;20075;-77
2022/10/07 07:28:57;;;;;;;10.98;2.40;;;16.20;73.50;;;;;;4811573;29;20058;-74
2022/10/07 07:31:23;;;;;;;14.65;3.22;;;16.20;73.50;;;;;;4827692;29;20339;-79
2022/10/07 07:33:51;;;;;;;14.18;3.35;;;16.20;73.50;;;;;;4796710;29;20054;-76
2022/10/07 07:36:19;;;;;;;14.65;3.53;;;16.20;73.60;;;;;;4827108;29;20054;-76
2022/10/07 07:38:51;;;;;;;9.43;2.90;;;16.20;73.60;;;;;;4811366;29;20508;-76
2022/10/07 07:41:19;;;;;;;12.32;2.75;;;16.20;73.80;;;;;;4827759;29;20058;-76
2022/10/07 07:43:53;;;;;;;14.50;3.17;;;16.10;73.90;;;;;;4827624;29;20099;-76
2022/10/07 07:46:19;;;;;;;;;;;16.20;74.00;;;;;;4827979;29;20093;-75
2022/10/07 07:48:45;;;;;;;7.35;2.28;;;16.20;73.80;;;;;;4827004;29;19936;-76
2022/10/07 07:51:13;;;;;;;8.35;2.67;;;16.10;73.90;;;;;;4827587;29;20096;-75
2022/10/07 07:53:38;;;;;;;7.82;2.30;;;16.20;73.90;;;;;;4827587;29;20066;-75
2022/10/07 07:56:05;;;;;;;11.30;2.65;;;16.20;73.90;;;;;;4838276;29;20158;-76
2022/10/07 07:58:31;;;;;;;10.60;2.55;;;16.20;73.90;;;;;;4841949;29;20054;-75
2022/10/07 08:01:08;;;;;;;11.98;2.50;;;16.30;73.90;;;;;;4836153;29;20045;-78
2022/10/07 08:03:36;;;;;;;10.02;2.60;;;16.30;74.20;;;;;;4828682;29;20068;-78
2022/10/07 08:06:03;;;;;;;9.93;2.03;;;16.30;73.90;;;;;;4828358;29;20061;-78
2022/10/07 08:08:30;;;;;;;9.93;1.88;;;16.30;74.00;;;;;;4826629;29;20060;-77
2022/10/07 08:10:57;;;;;;;10.98;2.22;;;16.30;74.10;;;;;;4829277;29;20129;-77
2022/10/07 08:13:23;;;;;;;9.65;2.53;;;16.30;74.10;;;;;;4844808;29;20144;-78
2022/10/07 08:15:55;;;;;;;7.68;2.20;;;16.30;74.10;;;;;;4844204;29;20065;-78
2022/10/07 08:18:21;;;;;;;7.70;2.20;;;16.30;74.10;;;;;;4844989;29;20085;-78
2022/10/07 08:20:57;;;;;;;9.38;2.35;;;16.40;74.10;;;;;;4844892;29;20085;-76
2022/10/07 08:23:25;;;;;;;11.55;2.45;;;16.40;73.90;;;;;;4844934;29;20061;-77
2022/10/07 08:25:58;;;;;;;10.18;2.78;;;16.40;73.90;;;;;;4844747;29;20062;-79
2022/10/07 08:28:25;;;;;;;15.20;3.38;;;16.40;73.90;;;;;;4845277;29;20089;-77
2022/10/07 08:30:51;;;;;;;14.57;3.25;;;16.40;73.90;;;;;;4845019;29;20046;-78
2022/10/07 08:33:17;;;;;;;10.05;2.30;;;16.40;73.90;;;;;;4844793;29;20046;-78
2022/10/07 08:35:49;;;;;;;12.45;2.85;;;16.40;73.80;;;;;;4845274;29;20049;-78
2022/10/07 08:38:14;;;;;;;7.07;2.25;;;16.50;73.90;;;;;;4828154;29;20076;-77
2022/10/07 08:40:49;;;;;;;11.95;2.00;;;16.50;73.80;;;;;;4844908;29;20449;-78
2022/10/07 08:43:17;;;;;;;8.70;2.45;;;16.50;73.80;;;;;;4845488;29;20110;-77
2022/10/07 08:45:44;;;;;;;10.75;2.67;;;16.50;73.80;;;;;;4845034;29;20563;-77
2022/10/07 08:48:33;;;;;;;7.95;2.65;;;16.50;73.70;;;;;;4844599;29;20042;-77
2022/10/07 08:51:25;;;;;;;13.52;2.58;;;16.50;73.60;;;;;;4844221;29;20504;-78
2022/10/07 08:53:54;;;;;;;8.05;2.50;;;16.50;73.60;;;;;;4828632;29;20493;-78
2022/10/07 08:56:25;;;;;;;8.88;2.25;;;16.50;73.70;;;;;;4844884;29;20108;-77
2022/10/07 08:58:50;;;;;;;9.80;2.13;;;16.60;73.70;;;;;;4843471;29;20049;-78
2022/10/07 09:01:47;;;;;;;5.47;2.10;;;16.60;73.60;;;;;;4844670;29;20110;-78
2022/10/07 09:04:52;;;;;;;6.85;1.60;;;16.60;73.60;;;;;;4841650;29;20056;-78
2022/10/07 09:07:31;;;;;;;6.47;1.92;;;16.60;73.60;;;;;;4844655;29;20065;-78
2022/10/07 09:10:20;;;;;;;5.32;1.35;;;16.60;73.60;;;;;;4844621;29;20357;-79
2022/10/07 09:13:02;;;;;;;9.48;2.50;;;16.60;73.50;;;;;;4844645;29;20065;-78
2022/10/07 09:15:55;;;;;;;8.55;2.20;;;16.60;73.40;;;;;;4828399;29;20072;-78
2022/10/07 09:18:33;;;;;;;8.20;2.07;;;16.60;73.40;;;;;;4843986;29;20133;-78
2022/10/07 09:21:04;;;;;;;6.63;1.90;;;16.70;73.50;;;;;;4844373;29;20286;-78
2022/10/07 09:23:32;;;;;;;5.75;2.05;;;16.60;73.40;;;;;;4827748;29;20054;-76
2022/10/07 09:25:58;;;;;;;9.00;2.22;;;16.70;73.50;;;;;;4843926;29;20554;-75
2022/10/07 09:28:31;;;;;;;7.53;2.25;;;16.70;73.60;;;;;;4844324;29;20118;-75
2022/10/07 09:30:58;;;;;;;6.65;1.38;;;16.70;73.60;;;;;;4844532;29;20133;-75
2022/10/07 09:33:24;;;;;;;10.25;2.63;;;16.70;73.60;;;;;;4844080;29;20382;-76
2022/10/07 09:35:53;;;;;;;7.60;2.03;;;16.70;73.70;;;;;;4843725;29;20049;-75
2022/10/07 09:38:35;;;;;;;6.28;1.65;;;16.70;73.80;;;;;;4843809;29;20458;-77
2022/10/07 09:41:21;;;;;;;3.80;1.48;;;16.70;73.80;;;;;;4844288;29;20427;-75
2022/10/07 09:43:53;;;;;;;7.63;1.92;;;16.70;73.80;;;;;;4844431;29;20382;-75
2022/10/07 09:46:31;;;;;;;6.20;1.88;;;16.80;73.80;;;;;;4843350;29;20477;-75
2022/10/07 09:49:00;;;;;;;8.70;1.95;;;16.80;73.80;;;;;;4827796;29;20070;-74
2022/10/07 09:51:28;;;;;;;6.97;1.63;;;16.80;73.70;;;;;;4846611;29;20095;-75
2022/10/07 09:53:57;;;;;;;5.78;1.80;;;16.80;73.60;;;;;;4847960;29;20053;-74
2022/10/07 09:56:40;;;;;;;5.47;1.70;;;16.80;73.60;;;;;;4830635;29;20068;-76
2022/10/07 09:59:25;;;;;;;4.47;1.33;;;16.90;73.60;;;;;;4846762;29;20476;-73
2022/10/07 10:01:56;;;;;;;6.88;1.90;;;16.90;73.70;;;;;;4828841;29;20057;-73
2022/10/07 10:04:32;;;;;;;8.02;1.65;;;16.90;73.70;;;;;;4836202;29;20057;-76
2022/10/07 10:07:05;;;;;;;9.35;2.10;;;16.90;73.80;;;;;;4847067;29;20050;-76
2022/10/07 10:09:32;;;;;;;8.73;2.20;;;16.90;73.50;;;;;;4846790;29;20065;-74
2022/10/07 10:12:12;;;;;;;11.07;2.63;;;16.90;73.30;;;;;;4847259;29;20105;-75
2022/10/07 10:14:53;;;;;;;8.93;2.45;;;16.90;73.70;;;;;;4847903;29;20049;-73
2022/10/07 10:17:34;;;;;;;12.27;3.03;;;16.90;73.00;;;;;;4847356;29;20049;-80
2022/10/07 10:20:26;;;;;;;10.68;2.80;;;16.90;73.00;;;;;;4847809;29;20050;-73
2022/10/07 10:22:52;;;;;;;9.10;2.08;;;16.90;73.10;;;;;;4847191;29;20050;-74
2022/10/07 10:28:43;;;;;;;10.90;2.78;;;16.90;73.00;;;;;;4825563;29;20064;-72
2022/10/07 10:31:29;;;;;;;11.55;2.42;;;16.90;73.00;;;;;;4847109;29;20057;-75
2022/10/07 10:34:15;;;;;;;10.68;2.53;;;16.90;73.00;;;;;;4830962;29;20058;-74
2022/10/07 10:36:45;;;;;;;10.57;2.92;;;16.90;72.90;;;;;;4847113;29;20054;-75
2022/10/07 10:39:43;;;;;;;8.88;2.88;;;16.90;73.30;;;;;;4846183;29;20121;-75
2022/10/07 10:42:13;;;;;;;10.60;3.10;;;16.90;73.10;;;;;;4846912;29;20114;-77
2022/10/07 10:44:54;;;;;;;14.48;3.22;;;16.90;73.10;;;;;;4847447;29;20125;-76
2022/10/07 14:29:42;;;;;;;7.80;1.70;;;17.30;73.10;;;;;;5538310;24;20070;-74
2022/10/07 14:35:21;;;;;;;17.38;2.17;;;17.30;73.10;;;;;;4828780;29;20359;-75
2022/10/07 14:37:48;;;;;;;12.85;1.98;;;17.30;73.10;;;;;;4827070;29;20050;-76
2022/10/07 14:40:22;;;;;;;12.20;2.03;;;17.30;73.20;;;;;;4811805;29;20050;-74
2022/10/07 14:42:53;;;;;;;13.18;2.10;;;17.30;73.30;;;;;;4828256;29;20058;-75
2022/10/07 14:45:23;;;;;;;11.68;2.00;;;17.30;73.20;;;;;;4828783;29;20399;-75
2022/10/07 14:47:48;;;;;;;9.95;2.03;;;17.30;73.20;;;;;;4828824;29;20081;-76
2022/10/07 14:50:18;;;;;;;9.57;1.73;;;17.30;73.20;;;;;;4828499;29;20046;-76
2022/10/07 14:52:47;;;;;;;11.10;2.35;;;17.30;73.10;;;;;;4827515;29;20142;-76
2022/10/07 14:55:26;;;;;;;10.50;2.20;;;17.30;73.00;;;;;;4826410;29;20060;-76
2022/10/07 14:57:52;;;;;;;10.77;2.38;;;17.30;73.00;;;;;;4825446;29;20490;-76
2022/10/07 15:00:28;;;;;;;12.27;1.92;;;17.30;73.10;;;;;;4827896;29;20094;-77
2022/10/07 15:02:55;;;;;;;15.68;2.17;;;17.30;73.10;;;;;;4827584;29;20061;-78
2022/10/07 15:05:22;;;;;;;9.60;2.10;;;17.30;73.20;;;;;;4827745;29;20461;-78
2022/10/07 15:07:50;;;;;;;8.05;2.00;;;17.30;73.20;;;;;;4827664;29;20034;-78
2022/10/07 15:10:22;;;;;;;9.32;1.95;;;17.30;73.20;;;;;;4828212;29;20047;-77
2022/10/07 15:12:48;;;;;;;9.70;1.83;;;17.40;73.30;;;;;;4827634;29;20454;-79
2022/10/07 15:15:14;;;;;;;8.02;1.90;;;17.40;73.20;;;;;;4812019;29;20050;-80
2022/10/07 15:17:41;;;;;;;9.70;2.08;;;17.40;73.00;;;;;;4827492;29;20351;-82
2022/10/07 15:20:11;;;;;;;10.90;2.00;;;17.30;73.10;;;;;;4811635;29;20093;-81
2022/10/07 15:22:37;;;;;;;12.80;2.03;;;17.30;73.30;;;;;;4795370;29;20038;-83
2022/10/07 15:25:08;;;;;;;10.02;1.67;;;17.30;73.60;;;;;;4811484;29;20091;-78
2022/10/07 15:27:34;;;;;;;13.68;2.17;;;17.40;73.80;;;;;;4827447;29;20068;-78
2022/10/07 15:29:59;;;;;;;8.98;2.35;;;17.40;73.90;;;;;;4826255;29;20514;-79
2022/10/07 15:32:29;;;;;;;7.97;3.75;;;17.40;74.00;;;;;;4827022;29;20066;-78
2022/10/07 15:34:56;;;;;;;19.20;14.73;;;17.40;73.90;;;;;;4827574;29;20051;-79
2022/10/07 15:37:23;;;;;;;17.52;6.85;;;17.40;74.20;;;;;;4827573;29;20062;-77
2022/10/07 15:39:50;;;;;;;11.43;2.88;;;17.40;74.40;;;;;;4827580;29;20054;-77
2022/10/07 15:42:17;;;;;;;12.02;3.83;;;17.40;73.60;;;;;;4827264;29;20115;-76
2022/10/07 16:31:33;;;;;;;10.77;1.80;;;17.50;73.90;;;;;;4826314;29;20051;-77
2022/10/07 16:33:58;;;;;;;10.98;1.80;;;17.60;73.50;;;;;;4824689;29;20077;-77
2022/10/07 16:36:25;;;;;;;10.45;2.03;;;17.50;73.60;;;;;;4825456;29;20050;-75
2022/10/07 16:38:52;;;;;;;9.93;2.47;;;17.50;73.60;;;;;;4810210;29;20367;-77
2022/10/07 16:41:20;;;;;;;8.25;2.25;;;17.50;73.80;;;;;;4826284;29;20046;-76
2022/10/07 16:43:46;;;;;;;12.82;2.30;;;17.50;73.80;;;;;;4826601;29;20055;-76
2022/10/07 16:46:16;;;;;;;7.68;2.05;;;17.60;73.90;;;;;;4825243;29;20141;-80
2022/10/07 16:48:42;;;;;;;13.82;1.83;;;17.50;73.80;;;;;;4824091;29;20126;-81
2022/10/07 16:51:17;;;;;;;7.70;2.03;;;17.50;73.90;;;;;;4809903;29;20084;-80
2022/10/07 16:53:47;;;;;;;9.90;2.08;;;17.60;74.10;;;;;;4810343;29;20501;-79
2022/10/07 16:56:15;;;;;;;12.05;1.65;;;17.60;74.10;;;;;;4810255;29;20073;-80
2022/10/07 16:58:41;;;;;;;12.43;2.10;;;17.60;74.20;;;;;;4809853;29;20042;-79
2022/10/07 17:01:09;;;;;;;12.23;2.55;;;17.60;74.30;;;;;;4825911;29;20134;-80
2022/10/07 17:03:36;;;;;;;11.40;2.20;;;17.60;74.20;;;;;;4809846;29;20042;-80
2022/10/07 17:06:03;;;;;;;12.30;1.83;;;17.60;74.30;;;;;;4826300;29;20373;-79
2022/10/07 17:08:31;;;;;;;14.02;2.15;;;17.60;74.20;;;;;;4826765;29;20050;-76
2022/10/07 17:10:58;;;;;;;14.90;2.83;;;17.60;74.10;;;;;;4826172;29;20053;-76
2022/10/07 17:13:24;;;;;;;13.05;2.67;;;17.60;73.90;;;;;;4810141;29;20130;-77
2022/10/07 17:15:49;;;;;;;10.02;1.92;;;17.60;74.00;;;;;;4809811;29;20058;-75
2022/10/07 17:18:16;;;;;;;13.75;2.33;;;17.50;74.00;;;;;;4825901;29;20046;-77
2022/10/07 17:20:54;;;;;;;7.28;2.30;;;17.50;74.00;;;;;;4825970;29;20125;-77
2022/10/07 17:23:24;;;;;;;9.05;2.05;;;17.50;73.90;;;;;;4825943;29;20096;-76
2022/10/07 17:25:51;;;;;;;17.80;2.30;;;17.50;73.80;;;;;;4824025;29;20351;-77
2022/10/07 17:28:17;;;;;;;11.60;2.55;;;17.50;73.80;;;;;;4823578;29;20050;-78
2022/10/07 17:30:44;;;;;;;11.50;1.85;;;17.50;74.40;;;;;;4825358;29;20370;-76
2022/10/07 17:33:11;;;;;;;11.00;2.22;;;17.50;73.90;;;;;;4825980;29;20433;-78
2022/10/07 17:35:39;;;;;;;8.13;1.92;;;17.50;73.90;;;;;;4826334;29;20126;-79
2022/10/07 17:38:06;;;;;;;8.73;1.30;;;17.60;73.90;;;;;;4815779;29;20054;-79
2022/10/07 17:40:33;;;;;;;8.57;1.83;;;17.60;73.80;;;;;;4808500;29;20347;-78
2022/10/07 17:43:05;;;;;;;12.02;2.40;;;17.60;73.80;;;;;;4807918;29;20069;-76
2022/10/07 17:45:35;;;;;;;7.93;1.48;;;17.60;73.70;;;;;;4807766;29;20082;-77
2022/10/07 17:48:02;;;;;;;13.70;1.55;;;17.60;73.60;;;;;;4816413;29;20096;-79
2022/10/07 17:50:29;;;;;;;10.20;2.03;;;17.60;73.70;;;;;;4825925;29;20092;-76
2022/10/07 17:52:55;;;;;;;11.68;1.92;;;17.60;73.80;;;;;;4825962;29;20062;-76
2022/10/07 17:55:21;;;;;;;7.18;1.70;;;17.60;73.80;;;;;;4826023;29;20462;-79
2022/10/07 17:57:47;;;;;;;7.13;1.77;;;17.60;73.80;;;;;;4818480;29;20057;-76
2022/10/07 18:00:13;;;;;;;7.47;1.98;;;17.60;73.90;;;;;;4807797;29;20051;-77
2022/10/07 18:02:38;;;;;;;4.85;1.50;;;17.70;73.80;;;;;;4792375;29;20059;-78
2022/10/07 18:05:05;;;;;;;4.32;1.35;;;17.60;73.70;;;;;;4807347;29;20111;-77
2022/10/07 18:07:31;;;;;;;11.00;1.83;;;17.70;73.70;;;;;;4823215;29;20046;-77
2022/10/07 18:09:57;;;;;;;12.65;2.35;;;17.60;73.30;;;;;;4825920;29;20068;-77
2022/10/07 18:15:21;;;;;;;8.82;2.17;;;17.60;71.90;;;;;;4810750;29;20137;-76
2022/10/07 18:17:50;;;;;;;11.13;2.95;;;17.50;71.70;;;;;;4810923;29;20336;-78
2022/10/07 18:20:20;;;;;;;8.38;1.92;;;17.50;71.50;;;;;;4811003;29;20131;-78
2022/10/07 18:22:52;;;;;;;10.38;2.25;;;17.40;71.80;;;;;;4825414;29;20054;-77
2022/10/07 18:25:18;;;;;;;8.68;2.35;;;17.40;72.10;;;;;;4828907;29;20058;-76
2022/10/07 18:27:43;;;;;;;9.27;2.25;;;17.40;72.30;;;;;;4829131;29;20111;-77